Time;durP1;ratioP1;P1;durP2;ratioP2;P2;SDS_P1;SDS_P2;PMS_P1;PMS_P2;Temp;Humidity;BMP_temperature;BMP_pressure;BME280_temperature;BME280_humidity;BME280_pressure;Samples;Min_cycle;Max_cycle;Signal;HPM_P1;HPM_P2
2022/06/09 00:00:57;;;;;;;17.13;3.17;;;;;;;23.19;53.06;100867.94;5031999;28;20036;-68
2022/06/09 00:03:37;;;;;;;14.23;2.38;;;;;;;22.15;55.58;100870.56;5028788;28;20389;-69
2022/06/09 00:06:06;;;;;;;12.25;2.15;;;;;;;22.87;52.58;100873.44;5016214;28;20417;-69
2022/06/09 00:08:32;;;;;;;13.23;3.28;;;;;;;21.84;57.32;100877.66;5011927;28;20026;-69
2022/06/09 00:11:03;;;;;;;11.15;3.72;;;;;;;21.27;59.02;100887.88;5012135;28;20107;-68
2022/06/09 00:13:29;;;;;;;15.98;2.83;;;;;;;22.45;55.72;100883.06;5026510;28;20488;-68
2022/06/09 00:15:55;;;;;;;7.57;2.13;;;;;;;22.66;53.75;100880.06;5018707;28;20115;-69
2022/06/09 00:18:21;;;;;;;10.60;1.67;;;;;;;22.62;53.76;100883.84;5021861;28;20017;-69
2022/06/09 00:20:46;;;;;;;8.30;2.53;;;;;;;21.78;55.81;100891.28;5030852;28;20108;-68
2022/06/09 00:23:13;;;;;;;9.63;3.47;;;;;;;21.92;54.35;100894.97;5031792;28;20021;-69
2022/06/09 00:25:39;;;;;;;6.35;1.95;;;;;;;22.22;55.54;100891.50;5029231;28;20021;-69
2022/06/09 00:28:05;;;;;;;6.78;1.88;;;;;;;22.37;54.20;100893.31;5029403;28;20029;-68
2022/06/09 00:30:31;;;;;;;9.00;1.85;;;;;;;23.02;51.53;100892.94;5030369;28;20112;-68
2022/06/09 00:32:56;;;;;;;10.80;2.58;;;;;;;22.57;51.86;100891.25;5030592;28;20025;-69
2022/06/09 00:35:22;;;;;;;11.00;2.40;;;;;;;23.13;51.63;100899.47;5030201;28;20030;-69
2022/06/09 00:37:47;;;;;;;12.43;2.20;;;;;;;23.23;51.17;100910.41;5031624;28;20388;-69
2022/06/09 00:40:14;;;;;;;10.20;2.35;;;;;;;22.27;53.99;100905.38;5028297;28;20040;-69
2022/06/09 00:42:39;;;;;;;9.07;2.03;;;;;;;22.96;51.78;100913.81;5028458;28;20485;-69
2022/06/09 00:45:21;;;;;;;12.60;1.90;;;;;;;23.34;50.16;100910.59;5029166;28;20090;-69
2022/06/09 00:47:46;;;;;;;13.20;2.53;;;;;;;23.07;50.91;100915.78;5030557;28;20083;-69
2022/06/09 00:50:19;;;;;;;6.97;1.50;;;;;;;21.50;56.50;100924.72;5031050;28;20041;-69
2022/06/09 00:52:51;;;;;;;9.25;1.30;;;;;;;22.06;52.96;100923.47;5031606;28;20037;-69
2022/06/09 00:55:20;;;;;;;5.05;1.50;;;;;;;22.23;52.42;100912.72;5032873;28;20390;-69
2022/06/09 00:58:02;;;;;;;9.57;1.55;;;;;;;23.85;49.02;100918.91;5014181;28;20100;-69
2022/06/09 01:00:41;;;;;;;7.57;1.65;;;;;;;22.88;50.14;100923.09;5058605;28;20404;-69
2022/06/09 01:03:07;;;;;;;2.88;1.50;;;;;;;23.51;48.10;100914.88;5034155;28;20123;-69
2022/06/09 01:05:36;;;;;;;9.52;1.60;;;;;;;23.07;49.42;100922.00;5033823;28;20485;-69
2022/06/09 01:08:04;;;;;;;9.40;2.55;;;;;;;22.48;51.58;100930.81;5034277;28;20025;-69
2022/06/09 01:10:30;;;;;;;9.18;1.55;;;;;;;22.97;49.45;100936.81;5033078;28;20815;-68
2022/06/09 01:12:56;;;;;;;6.72;1.65;;;;;;;21.97;52.83;100930.19;5032757;28;20028;-69
2022/06/09 01:15:27;;;;;;;4.38;1.30;;;;;;;23.13;49.12;100921.63;5030158;28;20059;-69
2022/06/09 01:18:08;;;;;;;8.13;1.65;;;;;;;22.18;52.06;100922.75;5034682;28;20021;-69
2022/06/09 01:21:01;;;;;;;11.40;2.20;;;;;;;23.15;49.69;100925.06;5033314;28;20520;-69
2022/06/09 01:23:35;;;;;;;5.15;1.70;;;;;;;23.38;48.13;100930.78;5033813;28;20090;-69
2022/06/09 01:26:22;;;;;;;3.83;1.83;;;;;;;22.33;50.56;100935.19;5028231;28;20034;-69
2022/06/09 01:29:12;;;;;;;5.97;1.58;;;;;;;21.65;52.65;100946.09;5031506;28;20021;-69
2022/06/09 01:32:21;;;;;;;9.40;1.75;;;;;;;21.82;52.10;100946.03;5014905;28;20057;-69
2022/06/09 01:35:20;;;;;;;4.22;1.48;;;;;;;22.90;50.18;100936.31;5016839;28;20449;-69
2022/06/09 01:37:54;;;;;;;8.98;1.80;;;;;;;22.11;52.26;100942.69;5045921;28;20120;-69
2022/06/09 01:40:20;;;;;;;9.25;1.83;;;;;;;22.18;51.55;100949.38;5022138;28;20123;-69
2022/06/09 01:42:51;;;;;;;10.27;1.98;;;;;;;21.40;55.14;100952.72;5031759;28;20385;-69
2022/06/09 01:45:27;;;;;;;6.00;1.58;;;;;;;21.47;53.52;100964.75;5032260;28;20025;-69
2022/06/09 01:48:07;;;;;;;5.57;1.30;;;;;;;22.15;51.46;100950.41;5032952;28;20481;-68
2022/06/09 01:50:39;;;;;;;8.43;2.20;;;;;;;22.70;50.13;100956.19;5033552;28;20029;-69
2022/06/09 01:53:30;;;;;;;5.57;1.45;;;;;;;22.89;50.04;100955.94;5031175;28;20401;-69
2022/06/09 01:56:04;;;;;;;3.90;1.52;;;;;;;22.70;50.69;100956.19;5019611;28;20744;-68
2022/06/09 01:58:37;;;;;;;7.00;1.58;;;;;;;22.15;51.46;100965.53;5032060;28;20032;-68
2022/06/09 02:01:03;;;;;;;6.68;1.75;;;;;;;22.50;51.39;100957.34;5032877;28;20022;-68
2022/06/09 02:03:36;;;;;;;3.53;1.67;;;;;;;22.93;50.17;100961.94;5031642;28;20110;-69
2022/06/09 02:06:05;;;;;;;4.95;1.95;;;;;;;22.33;51.85;100963.63;5033226;28;20032;-68
2022/06/09 02:08:33;;;;;;;7.30;1.70;;;;;;;22.20;51.95;100964.31;5032576;28;20029;-69
2022/06/09 02:11:04;;;;;;;6.30;1.58;;;;;;;22.69;50.26;100959.78;5032242;28;20505;-68
2022/06/09 02:13:34;;;;;;;7.93;1.85;;;;;;;21.97;53.23;100967.44;5063911;28;20132;-69
2022/06/09 02:16:03;;;;;;;6.30;1.50;;;;;;;23.15;49.61;100966.84;5031965;28;20036;-69
2022/06/09 02:18:32;;;;;;;9.00;1.50;;;;;;;23.21;49.73;100972.66;5033061;28;20062;-69
2022/06/09 02:21:14;;;;;;;15.63;3.22;;;;;;;22.64;51.09;100977.84;5063844;28;20090;-70
2022/06/09 02:23:40;;;;;;;4.88;1.40;;;;;;;21.32;55.47;100992.16;5023947;28;20038;-70
2022/06/09 02:26:06;;;;;;;8.98;2.58;;;;;;;22.32;51.88;100983.19;5026510;28;20481;-69
2022/06/09 02:28:32;;;;;;;7.47;1.48;;;;;;;22.94;49.58;100982.31;5030307;28;20022;-68
2022/06/09 02:30:58;;;;;;;6.50;1.60;;;;;;;22.51;51.80;100989.22;5032586;28;20095;-69
2022/06/09 02:33:23;;;;;;;13.02;1.85;;;;;;;23.05;50.41;100998.50;5030641;28;20029;-69
2022/06/09 02:35:50;;;;;;;10.15;1.77;;;;;;;23.38;49.37;100994.78;5033386;28;20658;-68
2022/06/09 02:38:17;;;;;;;6.32;1.42;;;;;;;22.82;51.24;100998.09;5039839;28;20500;-69
2022/06/09 02:40:42;;;;;;;11.30;2.03;;;;;;;22.84;50.31;100990.84;5027287;28;20109;-69
2022/06/09 02:43:08;;;;;;;9.07;1.33;;;;;;;22.85;49.96;101003.22;5029156;28;20120;-69
2022/06/09 02:45:33;;;;;;;11.40;1.80;;;;;;;23.02;50.33;101004.88;5029933;28;20057;-68
2022/06/09 02:47:59;;;;;;;8.13;1.42;;;;;;;22.86;50.76;100999.63;5032266;28;20034;-69
2022/06/09 02:50:25;;;;;;;5.40;1.50;;;;;;;22.98;50.34;101002.50;5033248;28;20385;-69
2022/06/09 02:52:51;;;;;;;8.63;1.77;;;;;;;23.27;49.27;101014.09;5032138;28;20025;-69
2022/06/09 02:55:16;;;;;;;4.13;1.45;;;;;;;22.47;50.43;101010.78;5029029;28;20025;-69
2022/06/09 02:57:42;;;;;;;6.63;1.20;;;;;;;22.79;50.99;101003.59;5032470;28;20496;-69
2022/06/09 03:00:10;;;;;;;8.80;2.05;;;;;;;23.81;47.95;101018.78;5031865;28;20022;-68
2022/06/09 03:02:35;;;;;;;3.50;1.40;;;;;;;23.75;47.41;101021.84;5030198;28;20477;-69
2022/06/09 03:05:01;;;;;;;4.93;1.40;;;;;;;23.06;49.24;101016.22;5032848;28;20032;-69
2022/06/09 03:07:27;;;;;;;7.25;1.30;;;;;;;22.47;50.74;101030.28;5032021;28;20021;-69
2022/06/09 03:09:53;;;;;;;8.95;1.58;;;;;;;23.28;49.24;101026.47;5032068;28;20465;-69
2022/06/09 03:12:19;;;;;;;4.85;0.93;;;;;;;23.33;48.42;101026.22;5031829;28;20144;-69
2022/06/09 03:14:45;;;;;;;10.70;1.30;;;;;;;23.38;48.77;101034.78;5030716;28;20108;-69
2022/06/09 03:17:10;;;;;;;5.05;1.05;;;;;;;22.08;51.30;101042.19;5030634;28;20108;-69
2022/06/09 03:19:37;;;;;;;6.72;1.38;;;;;;;20.98;55.49;101037.28;5031188;28;20057;-69
2022/06/09 03:22:03;;;;;;;8.93;1.88;;;;;;;21.49;53.80;101053.28;5032023;28;20036;-69
2022/06/09 03:24:28;;;;;;;3.88;1.15;;;;;;;22.00;52.01;101049.75;5029145;28;20045;-69
2022/06/09 03:26:54;;;;;;;4.85;1.08;;;;;;;22.31;49.89;101056.03;5029173;28;20029;-69
2022/06/09 03:29:20;;;;;;;3.30;0.88;;;;;;;22.73;50.38;101051.91;5029584;28;20029;-70
2022/06/09 03:31:46;;;;;;;6.15;1.13;;;;;;;23.06;49.05;101047.38;5032311;28;20040;-69
2022/06/09 03:34:12;;;;;;;1.77;0.82;;;;;;;22.33;49.08;101056.81;5032604;28;20025;-69
2022/06/09 03:36:38;;;;;;;6.28;1.00;;;;;;;22.06;50.00;101057.38;5030143;28;20060;-70
2022/06/09 03:39:03;;;;;;;4.07;0.88;;;;;;;21.92;50.59;101065.28;5022620;28;20037;-69
2022/06/09 03:41:29;;;;;;;5.78;0.88;;;;;;;23.33;47.85;101066.22;5029571;28;20120;-69
2022/06/09 03:43:54;;;;;;;7.57;1.20;;;;;;;23.53;46.64;101068.53;5030331;28;20029;-69
2022/06/09 03:46:20;;;;;;;2.60;0.80;;;;;;;23.87;45.23;101081.59;5030905;28;20033;-69
2022/06/09 03:48:46;;;;;;;2.70;0.90;;;;;;;22.97;47.71;101080.72;5032185;28;20107;-69
2022/06/09 03:51:12;;;;;;;3.30;0.90;;;;;;;23.40;47.14;101088.91;5030877;28;20076;-69
2022/06/09 03:53:39;;;;;;;5.50;1.30;;;;;;;23.33;47.04;101084.88;5030337;28;20021;-68
2022/06/09 03:56:06;;;;;;;3.45;0.95;;;;;;;23.18;47.00;101095.50;5031083;28;20025;-69
2022/06/09 03:58:31;;;;;;;2.65;0.80;;;;;;;23.49;46.87;101096.34;5030544;28;20025;-69
2022/06/09 04:00:57;;;;;;;2.80;0.70;;;;;;;23.41;46.28;101101.28;5030897;28;20075;-68
2022/06/09 04:03:22;;;;;;;5.13;1.45;;;;;;;23.27;46.99;101104.75;5031278;28;20030;-69
2022/06/09 04:05:48;;;;;;;2.83;0.60;;;;;;;23.77;44.91;101113.34;5030699;28;20030;-68
2022/06/09 04:08:13;;;;;;;5.30;0.93;;;;;;;23.10;46.68;101119.06;5031375;28;20045;-69
2022/06/09 04:10:38;;;;;;;4.38;0.95;;;;;;;23.94;45.30;101119.47;5029211;28;20033;-68
2022/06/09 04:13:04;;;;;;;5.28;0.77;;;;;;;23.40;45.61;101131.56;5029613;28;20117;-69
2022/06/09 04:15:30;;;;;;;3.10;0.77;;;;;;;24.29;44.58;101127.09;5031795;28;20029;-69
2022/06/09 04:17:57;;;;;;;3.28;0.50;;;;;;;24.12;45.29;101137.00;5030988;28;20031;-69
2022/06/09 04:20:25;;;;;;;1.83;0.65;;;;;;;24.86;43.51;101145.69;5030892;28;20442;-69
2022/06/09 04:22:51;;;;;;;4.80;1.13;;;;;;;23.65;46.17;101138.09;5029507;28;20025;-68
2022/06/09 04:25:18;;;;;;;4.95;0.85;;;;;;;24.84;43.72;101142.28;5024511;28;20018;-68
2022/06/09 04:27:44;;;;;;;4.57;0.90;;;;;;;22.67;48.25;101161.50;5012273;28;20117;-69
2022/06/09 04:30:10;;;;;;;1.05;0.82;;;;;;;22.74;47.81;101160.19;5031107;28;20129;-69
2022/06/09 04:32:35;;;;;;;4.05;1.15;;;;;;;23.50;47.05;101158.56;5033103;28;20501;-69
2022/06/09 04:35:01;;;;;;;3.08;1.42;;;;;;;24.20;45.79;101158.75;5034776;28;20043;-69
2022/06/09 04:37:59;;;;;;;4.55;0.95;;;;;;;24.15;46.09;101170.69;5035683;28;20040;-69
2022/06/09 04:40:12;;;;;;;4.07;1.90;;;;;;;22.37;49.91;101175.53;5034816;28;20025;-69
2022/06/09 04:42:37;;;;;;;3.88;0.85;;;;;;;24.04;45.92;101166.00;5032970;28;20036;-68
2022/06/09 04:45:03;;;;;;;3.70;1.00;;;;;;;23.75;45.69;101168.59;5034288;28;20059;-69
2022/06/09 04:47:29;;;;;;;4.82;1.73;;;;;;;24.14;45.27;101164.50;5033314;28;20059;-69
2022/06/09 04:49:54;;;;;;;2.30;1.13;;;;;;;23.11;48.03;101173.22;5034832;28;20497;-68
2022/06/09 04:52:19;;;;;;;3.53;1.00;;;;;;;23.47;45.93;101170.25;5034329;28;20025;-68
2022/06/09 04:54:45;;;;;;;3.90;0.82;;;;;;;22.82;48.05;101179.28;5030792;28;20029;-69
2022/06/09 04:57:10;;;;;;;6.40;1.20;;;;;;;21.84;51.89;101183.63;5035278;28;20021;-69
2022/06/09 04:59:36;;;;;;;2.65;0.82;;;;;;;21.82;51.78;101182.81;5033823;28;20029;-69
2022/06/09 05:02:01;;;;;;;6.15;1.50;;;;;;;22.41;50.18;101201.06;5033632;28;20461;-68
2022/06/09 05:04:27;;;;;;;3.80;0.90;;;;;;;22.39;50.22;101197.59;5029703;28;20036;-69
2022/06/09 05:06:52;;;;;;;5.22;1.05;;;;;;;22.59;50.09;101204.53;5032380;28;20108;-69
2022/06/09 05:09:17;;;;;;;2.53;0.88;;;;;;;22.19;50.72;101212.81;5035080;28;20397;-69
2022/06/09 05:11:43;;;;;;;3.53;0.80;;;;;;;23.49;47.27;101208.38;5033899;28;20108;-69
2022/06/09 05:14:09;;;;;;;3.80;0.95;;;;;;;24.09;45.17;101213.78;5032038;28;20600;-68
2022/06/09 05:16:34;;;;;;;1.75;0.90;;;;;;;24.19;45.04;101223.81;5034964;28;20025;-69
2022/06/09 05:18:59;;;;;;;1.27;0.80;;;;;;;22.47;50.03;101232.69;5032821;28;20033;-68
2022/06/09 05:21:25;;;;;;;6.80;1.40;;;;;;;24.05;45.43;101231.78;5030831;28;20041;-69
2022/06/09 05:23:50;;;;;;;2.28;0.90;;;;;;;22.73;49.97;101241.06;5029773;28;20033;-69
2022/06/09 05:26:16;;;;;;;3.08;0.88;;;;;;;22.48;49.67;101246.88;5032167;28;20042;-69
2022/06/09 05:28:41;;;;;;;1.05;0.95;;;;;;;21.93;51.23;101251.44;5032502;28;20045;-69
2022/06/09 05:31:07;;;;;;;5.75;1.33;;;;;;;20.83;55.65;101267.34;5033989;28;20054;-69
2022/06/09 05:33:32;;;;;;;2.97;0.90;;;;;;;22.30;51.28;101262.00;5027050;28;20029;-69
2022/06/09 05:35:58;;;;;;;3.20;1.13;;;;;;;;;;5033216;28;20100;-69
2022/06/09 05:46:38;;;;;;;1.45;0.98;;;;;;;22.08;54.28;101284.41;5034554;28;20447;-69
2022/06/09 05:49:04;;;;;;;3.13;1.50;;;;;;;22.42;52.96;101288.00;5032438;28;20029;-69
2022/06/09 05:51:30;;;;;;;3.67;1.70;;;;;;;21.93;55.14;101301.16;5038762;28;20048;-69
2022/06/09 05:53:56;;;;;;;4.32;1.67;;;;;;;21.21;58.69;101297.53;5029750;28;20052;-69
2022/06/09 05:56:21;;;;;;;4.45;1.50;;;;;;;22.20;54.12;101305.06;5027500;28;20435;-69
2022/06/09 05:58:47;;;;;;;6.55;1.70;;;;;;;22.50;53.57;101312.44;5035661;28;20346;-68
2022/06/09 06:01:13;;;;;;;4.88;1.80;;;;;;;21.75;55.19;101314.44;5038789;28;20035;-68
2022/06/09 06:03:40;;;;;;;10.75;2.15;;;;;;;21.71;56.49;101322.63;5032871;28;20499;-69
2022/06/09 06:08:50;;;;;;;4.88;1.98;;;;;;;21.08;60.35;101313.19;5030428;28;20049;-69
2022/06/09 06:11:16;;;;;;;3.33;1.90;;;;;;;21.76;56.68;101313.50;5028487;28;20025;-69
2022/06/09 06:13:43;;;;;;;3.72;1.52;;;;;;;23.13;51.39;101321.50;5025188;28;20122;-69
2022/06/09 06:16:08;;;;;;;3.88;1.45;;;;;;;22.48;52.96;101327.63;5025215;28;20469;-69
2022/06/09 06:18:33;;;;;;;4.32;2.05;;;;;;;22.71;52.90;101341.53;5057598;28;20519;-69
2022/06/09 06:20:59;;;;;;;4.50;2.03;;;;;;;22.99;51.82;101345.38;5031555;28;20121;-68
2022/06/09 06:23:25;;;;;;;6.18;1.73;;;;;;;22.11;55.07;101349.94;5026592;28;20041;-69
2022/06/09 06:25:52;;;;;;;4.72;1.88;;;;;;;22.84;52.32;101344.41;5023130;28;21772;-69
2022/06/09 06:28:18;;;;;;;3.72;1.77;;;;;;;22.70;53.19;101351.31;5031116;28;20040;-68
2022/06/09 06:30:43;;;;;;;2.58;1.70;;;;;;;21.44;54.82;101357.56;5030275;28;20793;-69
2022/06/09 06:33:09;;;;;;;2.58;1.75;;;;;;;21.46;57.53;101353.91;5041238;28;20062;-68
2022/06/09 06:35:34;;;;;;;7.32;2.25;;;;;;;21.89;55.73;101358.97;5051528;28;20125;-68
2022/06/09 06:38:00;;;;;;;5.53;1.90;;;;;;;22.95;53.23;101357.16;5052871;28;20086;-68
2022/06/09 06:40:25;;;;;;;4.13;1.92;;;;;;;23.39;51.21;101356.53;5051092;28;20033;-68
2022/06/09 06:42:51;;;;;;;3.58;1.90;;;;;;;22.85;52.67;101359.47;5051870;28;20025;-68
2022/06/09 06:45:16;;;;;;;4.30;1.83;;;;;;;23.42;50.66;101369.69;5052794;28;20021;-69
2022/06/09 06:47:42;;;;;;;5.13;1.75;;;;;;;23.93;48.87;101366.00;5052892;28;20439;-68
2022/06/09 06:50:11;;;;;;;1.77;1.67;;;;;;;25.05;47.19;101363.75;5051236;28;20102;-69
2022/06/09 06:52:37;;;;;;;3.88;1.73;;;;;;;24.00;49.57;101375.38;5051226;28;20126;-68
2022/06/09 06:55:04;;;;;;;3.70;1.60;;;;;;;24.12;49.02;101380.00;5053272;28;20473;-69
2022/06/09 06:57:29;;;;;;;3.10;1.50;;;;;;;23.11;50.55;101384.72;5052801;28;20033;-68
2022/06/09 06:59:55;;;;;;;2.60;1.30;;;;;;;23.42;50.40;101388.38;5052240;28;20028;-69
2022/06/09 07:02:21;;;;;;;1.98;1.40;;;;;;;24.65;47.10;101382.28;5051786;28;20031;-68
2022/06/09 07:04:46;;;;;;;2.42;1.27;;;;;;;24.22;48.29;101386.53;5051531;28;20048;-68
2022/06/09 07:07:12;;;;;;;3.45;1.52;;;;;;;24.42;45.45;101397.84;5052010;28;20465;-69
2022/06/09 07:09:37;;;;;;;2.80;1.17;;;;;;;24.77;45.88;101386.88;5051228;28;20021;-69
2022/06/09 07:12:04;;;;;;;3.03;1.40;;;;;;;24.93;45.11;101391.25;5051537;28;20025;-68
2022/06/09 07:14:30;;;;;;;3.72;1.33;;;;;;;24.80;45.16;101400.03;5051795;28;20028;-69
2022/06/09 07:16:55;;;;;;;2.25;1.30;;;;;;;24.46;47.49;101407.38;5051400;28;20497;-68
2022/06/09 07:19:21;;;;;;;2.47;1.20;;;;;;;23.52;48.77;101402.06;5051224;28;20024;-69
2022/06/09 07:21:46;;;;;;;1.63;1.15;;;;;;;24.61;46.67;101402.97;5051830;28;20042;-69
2022/06/09 07:24:12;;;;;;;2.55;1.95;;;;;;;24.47;46.51;101409.13;5052411;28;20025;-69
2022/06/09 07:26:37;;;;;;;3.20;1.30;;;;;;;24.44;46.49;101411.97;5051185;28;20025;-69
2022/06/09 07:29:03;;;;;;;4.55;1.65;;;;;;;25.38;44.51;101411.59;5051588;28;20025;-68
2022/06/09 07:31:29;;;;;;;3.03;1.55;;;;;;;24.76;46.00;101414.53;5052300;28;20049;-68
2022/06/09 07:33:55;;;;;;;5.15;1.52;;;;;;;24.35;47.77;101428.53;5050922;28;20033;-69
2022/06/09 07:36:23;;;;;;;2.92;1.50;;;;;;;24.72;46.10;101427.22;5051599;28;20443;-69
2022/06/09 07:38:49;;;;;;;6.00;1.50;;;;;;;24.67;46.41;101439.16;5050921;28;20067;-69
2022/06/09 07:41:14;;;;;;;4.45;1.25;;;;;;;26.00;44.66;101430.88;5052323;28;20029;-68
2022/06/09 07:43:40;;;;;;;4.05;1.52;;;;;;;24.47;47.85;101443.84;5050164;28;20012;-68
2022/06/09 07:46:05;;;;;;;7.82;1.77;;;;;;;23.15;50.82;101447.63;5052232;28;20021;-68
2022/06/09 07:48:31;;;;;;;5.55;1.60;;;;;;;24.85;47.11;101448.75;5051782;28;20029;-68
2022/06/09 07:50:56;;;;;;;2.55;1.40;;;;;;;24.82;46.16;101443.56;5051201;28;20021;-68
2022/06/09 07:53:23;;;;;;;6.10;1.40;;;;;;;24.42;47.52;101448.59;5051985;28;20025;-68
2022/06/09 07:55:49;;;;;;;6.43;2.42;;;;;;;24.98;46.74;101458.69;5050935;28;20032;-68
2022/06/09 07:58:16;;;;;;;8.48;1.50;;;;;;;26.00;43.62;101453.16;5050669;28;20025;-69
2022/06/09 08:00:41;;;;;;;3.97;1.80;;;;;;;26.52;43.57;101459.56;5051809;28;20021;-68
2022/06/09 08:03:07;;;;;;;3.95;1.95;;;;;;;25.50;46.46;101455.47;5049747;28;20020;-68
2022/06/09 08:05:34;;;;;;;4.53;1.70;;;;;;;25.04;46.52;101458.31;5050324;28;20020;-69
2022/06/09 08:08:00;;;;;;;6.95;2.47;;;;;;;26.00;44.89;101452.31;5051884;28;20025;-68
2022/06/09 08:10:28;;;;;;;6.05;1.60;;;;;;;27.03;41.88;101458.78;5051043;28;20019;-68
2022/06/09 08:12:57;;;;;;;7.35;1.60;;;;;;;27.28;41.01;101461.56;5051953;28;20020;-68
2022/06/09 08:15:25;;;;;;;3.63;1.00;;;;;;;29.47;37.22;101461.31;5051597;28;20104;-68
2022/06/09 08:17:55;;;;;;;4.28;0.95;;;;;;;28.18;37.07;101472.97;5050927;28;20025;-68
2022/06/09 08:20:22;;;;;;;5.47;1.17;;;;;;;28.32;36.43;101476.47;5050134;28;20020;-70
2022/06/09 08:22:47;;;;;;;5.70;1.15;;;;;;;28.92;37.07;101482.66;5051875;28;20073;-68
2022/06/09 08:25:18;;;;;;;9.18;1.48;;;;;;;29.38;34.21;101489.81;5049612;28;20017;-70
2022/06/09 08:27:44;;;;;;;4.65;1.10;;;;;;;31.81;32.07;101488.31;5050225;28;20052;-68
2022/06/09 08:30:12;;;;;;;6.70;1.52;;;;;;;32.19;30.39;101491.25;5049918;28;20083;-69
2022/06/09 08:32:38;;;;;;;6.75;0.80;;;;;;;30.96;31.10;101496.56;5049374;28;20056;-69
2022/06/09 08:35:05;;;;;;;4.18;1.27;;;;;;;30.92;31.53;101494.28;5050332;28;20393;-69
2022/06/09 08:37:30;;;;;;;4.70;0.70;;;;;;;32.60;29.68;101495.53;5051451;28;20465;-69
2022/06/09 08:39:56;;;;;;;5.65;1.45;;;;;;;31.87;29.23;101503.97;5049445;28;20108;-69
2022/06/09 08:42:28;;;;;;;4.78;0.95;;;;;;;33.71;28.65;101499.47;5051583;28;20472;-69
2022/06/09 08:45:00;;;;;;;9.50;1.73;;;;;;;33.02;28.40;101515.13;5050568;28;20024;-69
2022/06/09 08:47:35;;;;;;;3.67;0.95;;;;;;;30.17;30.69;101514.97;5051372;28;20025;-68
2022/06/09 08:50:06;;;;;;;6.53;0.85;;;;;;;31.77;29.20;101519.31;5050170;28;20063;-68
2022/06/09 08:52:47;;;;;;;2.60;0.90;;;;;;;32.37;28.38;101515.72;5049591;28;20027;-70
2022/06/09 08:55:18;;;;;;;4.43;1.00;;;;;;;32.34;28.44;101521.44;5051360;28;20056;-69
2022/06/09 08:57:44;;;;;;;4.05;1.10;;;;;;;31.09;28.93;101526.09;5051176;28;20104;-69
2022/06/09 09:00:14;;;;;;;5.82;1.48;;;;;;;32.05;27.81;101527.63;5049327;28;20033;-68
2022/06/09 09:02:45;;;;;;;2.40;0.70;;;;;;;34.50;26.00;101527.81;5049953;28;20029;-69
2022/06/09 09:05:26;;;;;;;6.30;1.05;;;;;;;34.10;25.63;101527.22;5050120;28;20040;-69
2022/06/09 09:07:56;;;;;;;4.97;1.38;;;;;;;33.18;26.50;101536.16;5050520;28;20025;-68
2022/06/09 09:10:31;;;;;;;8.82;0.98;;;;;;;33.57;26.62;101526.06;5049796;28;20025;-68
2022/06/09 09:13:13;;;;;;;5.05;1.17;;;;;;;33.64;26.33;101532.59;5051507;28;20021;-71
2022/06/09 09:15:44;;;;;;;4.00;0.90;;;;;;;33.50;26.69;101535.81;5055398;28;20090;-68
2022/06/09 09:18:44;;;;;;;4.28;0.82;;;;;;;34.37;25.10;101527.34;5053594;28;20472;-68
2022/06/09 09:21:27;;;;;;;5.47;1.25;;;;;;;33.33;26.72;101536.56;5053912;28;20116;-69
2022/06/09 09:24:03;;;;;;;2.83;1.30;;;;;;;31.30;29.07;101550.38;5053639;28;20021;-69
2022/06/09 09:26:41;;;;;;;8.18;1.20;;;;;;;31.42;28.66;101552.97;5054841;28;20226;-68
2022/06/09 09:29:32;;;;;;;5.93;2.25;;;;;;;32.35;26.75;101545.63;5052721;28;20033;-68
2022/06/09 09:32:01;;;;;;;6.78;1.05;;;;;;;33.79;25.26;101545.69;5054570;28;20048;-68
2022/06/09 09:34:39;;;;;;;5.88;0.98;;;;;;;34.88;23.62;101552.88;5052516;28;20021;-69
2022/06/09 09:37:21;;;;;;;5.15;1.10;;;;;;;34.40;25.23;101559.56;5054555;28;20024;-68
2022/06/09 09:39:56;;;;;;;9.77;1.00;;;;;;;32.69;26.49;101574.13;5054634;28;20023;-69
2022/06/09 09:42:28;;;;;;;8.95;1.75;;;;;;;34.62;24.90;101558.25;5052484;28;20075;-69
2022/06/09 09:45:02;;;;;;;6.40;1.50;;;;;;;31.28;28.97;101579.38;5053275;28;20029;-69
2022/06/09 09:47:31;;;;;;;5.90;1.20;;;;;;;33.92;25.90;101572.41;5054185;28;20086;-69
2022/06/09 09:50:07;;;;;;;5.32;1.40;;;;;;;33.95;24.86;101577.53;5052356;28;20032;-69
2022/06/09 09:53:05;;;;;;;5.00;1.17;;;;;;;32.20;27.22;101574.06;5054473;28;20124;-70
2022/06/09 09:55:50;;;;;;;5.07;1.20;;;;;;;32.12;27.08;101582.84;5051801;28;20390;-70
2022/06/09 09:58:54;;;;;;;6.18;1.30;;;;;;;33.73;25.18;101584.19;5054010;28;20024;-70
2022/06/09 10:01:19;;;;;;;6.32;1.25;;;;;;;32.64;26.18;101594.34;5053840;28;20072;-71
2022/06/09 10:09:49;;;;;;;3.50;1.45;;;;;;;32.43;25.98;101601.72;5053514;28;20110;-69
2022/06/09 10:12:17;;;;;;;5.75;1.17;;;;;;;31.57;28.77;101607.50;5053738;28;20033;-69
2022/06/09 10:15:05;;;;;;;3.10;0.73;;;;;;;30.70;27.26;101616.69;5052589;28;20025;-69
2022/06/09 10:17:57;;;;;;;6.68;1.95;;;;;;;31.59;26.92;101608.28;5053135;28;20025;-69
2022/06/09 10:20:59;;;;;;;4.77;0.97;;;;;;;32.50;25.78;101619.09;5053824;28;20473;-70
2022/06/09 10:23:42;;;;;;;3.38;1.08;;;;;;;30.87;27.47;101629.63;5051678;28;20481;-70
2022/06/09 10:26:14;;;;;;;6.78;1.95;;;;;;;31.58;26.51;101610.06;5051161;28;20090;-69
2022/06/09 10:28:52;;;;;;;3.90;1.00;;;;;;;32.74;25.47;101620.56;5052415;28;20618;-69
2022/06/09 10:31:39;;;;;;;3.70;1.00;;;;;;;32.75;27.36;101614.16;5052550;28;20052;-69
2022/06/09 10:34:29;;;;;;;5.57;1.15;;;;;;;31.71;26.32;101638.72;5053419;28;20032;-70
2022/06/09 10:37:07;;;;;;;6.10;1.10;;;;;;;32.54;26.85;101620.53;5052071;28;20555;-70
2022/06/09 10:40:04;;;;;;;2.72;1.00;;;;;;;32.09;25.91;101635.34;5051098;28;20094;-70
2022/06/09 10:42:44;;;;;;;5.65;1.08;;;;;;;33.20;25.12;101643.34;5042147;28;20049;-71
2022/06/09 10:45:28;;;;;;;5.15;1.25;;;;;;;32.52;25.90;101644.19;5051232;28;20033;-69
2022/06/09 10:57:09;;;;;;;6.70;1.00;;;;;;;32.96;25.50;101641.94;5053378;28;20035;-69
2022/06/09 10:59:54;;;;;;;3.88;0.93;;;;;;;31.12;28.32;101655.41;5051266;28;20021;-69
2022/06/09 11:02:23;;;;;;;4.55;1.13;;;;;;;30.40;29.15;101648.69;5052723;28;20477;-69
2022/06/09 11:04:51;;;;;;;5.28;1.13;;;;;;;31.06;28.48;101645.13;5052979;28;20033;-69
2022/06/09 11:07:35;;;;;;;5.75;1.67;;;;;;;32.06;27.70;101648.28;5052119;28;20024;-69
2022/06/09 11:10:21;;;;;;;3.67;0.90;;;;;;;33.99;25.52;101652.13;5051625;28;20120;-69
2022/06/09 11:13:00;;;;;;;5.03;0.88;;;;;;;33.31;25.62;101645.91;5050420;28;20546;-69
2022/06/09 11:15:45;;;;;;;3.50;0.95;;;;;;;33.17;25.31;101649.06;5051569;28;20025;-70
2022/06/09 11:18:40;;;;;;;4.43;1.00;;;;;;;31.39;27.14;101655.88;5051540;28;20491;-69
2022/06/09 11:21:30;;;;;;;5.68;1.00;;;;;;;32.68;26.76;101659.00;5052025;28;20170;-69
2022/06/09 11:24:08;;;;;;;8.48;1.45;;;;;;;30.35;30.21;101660.84;5052631;28;20021;-69
2022/06/09 11:26:47;;;;;;;6.78;0.90;;;;;;;31.83;27.89;101653.88;5052596;28;20112;-69
2022/06/09 11:29:42;;;;;;;6.10;1.00;;;;;;;32.12;26.05;101658.53;5052533;28;20108;-69
2022/06/09 11:32:11;;;;;;;2.38;1.10;;;;;;;30.78;28.34;101663.59;5033415;28;20041;-68
2022/06/09 11:34:48;;;;;;;6.82;1.40;;;;;;;32.42;26.29;101656.81;5050519;28;20036;-69
2022/06/09 11:37:28;;;;;;;10.55;2.00;;;;;;;33.08;26.92;101666.16;5050686;28;20031;-69
2022/06/09 11:40:05;;;;;;;5.25;1.40;;;;;;;32.18;26.05;101660.75;5052441;28;20046;-69
2022/06/09 11:42:43;;;;;;;5.55;1.17;;;;;;;29.72;30.62;101664.03;5050219;28;20473;-68
2022/06/09 11:45:34;;;;;;;6.15;1.50;;;;;;;30.34;28.96;101675.34;5052350;28;20032;-69
2022/06/09 11:48:05;;;;;;;7.50;1.70;;;;;;;30.37;29.66;101675.94;5040162;28;20492;-69
2022/06/09 11:50:40;;;;;;;6.38;1.20;;;;;;;30.91;29.85;101667.97;5050939;28;20036;-69
2022/06/09 11:53:06;;;;;;;3.97;1.08;;;;;;;30.47;29.03;101686.84;5052158;28;20029;-70
2022/06/09 11:55:57;;;;;;;5.35;1.10;;;;;;;30.66;28.96;101675.41;5049907;28;20499;-69
2022/06/09 11:58:35;;;;;;;8.27;1.45;;;;;;;31.78;27.69;101666.94;5052020;28;20029;-70
2022/06/09 12:01:42;;;;;;;7.35;1.25;;;;;;;31.40;28.27;101674.63;5052051;28;20039;-69
2022/06/09 12:04:52;;;;;;;8.15;1.85;;;;;;;30.29;28.31;101687.34;5049991;28;20021;-69
2022/06/09 12:08:08;;;;;;;3.83;1.30;;;;;;;31.17;27.63;101678.47;5050615;28;20025;-69